sensor_id;sensor_type;location;lat;lon;timestamp;P1;durP1;ratioP1;P2;durP2;ratioP2
21822;SDS011;11074;48.596;9.238;2022-12-07T00:03:50;8.73;;;5.30;;
21822;SDS011;11074;48.596;9.238;2022-12-07T00:06:18;9.20;;;6.22;;
21822;SDS011;11074;48.596;9.238;2022-12-07T00:08:45;7.60;;;5.30;;
21822;SDS011;11074;48.596;9.238;2022-12-07T00:11:21;7.07;;;5.10;;
21822;SDS011;11074;48.596;9.238;2022-12-07T00:13:55;7.55;;;5.25;;
21822;SDS011;11074;48.596;9.238;2022-12-07T00:16:25;7.80;;;5.22;;
21822;SDS011;11074;48.596;9.238;2022-12-07T00:18:54;8.98;;;5.28;;
21822;SDS011;11074;48.596;9.238;2022-12-07T00:21:25;8.00;;;5.15;;
21822;SDS011;11074;48.596;9.238;2022-12-07T00:23:54;7.90;;;5.28;;
21822;SDS011;11074;48.596;9.238;2022-12-07T00:26:22;6.68;;;5.22;;
21822;SDS011;11074;48.596;9.238;2022-12-07T00:28:53;6.85;;;4.65;;
21822;SDS011;11074;48.596;9.238;2022-12-07T00:31:25;8.68;;;5.90;;
21822;SDS011;11074;48.596;9.238;2022-12-07T00:33:54;7.18;;;5.18;;
21822;SDS011;11074;48.596;9.238;2022-12-07T00:36:22;7.60;;;4.53;;
21822;SDS011;11074;48.596;9.238;2022-12-07T00:38:49;8.45;;;4.63;;
21822;SDS011;11074;48.596;9.238;2022-12-07T00:41:16;6.05;;;4.40;;
21822;SDS011;11074;48.596;9.238;2022-12-07T00:43:46;6.60;;;4.45;;
21822;SDS011;11074;48.596;9.238;2022-12-07T00:46:14;7.45;;;5.07;;
21822;SDS011;11074;48.596;9.238;2022-12-07T00:48:41;5.63;;;4.13;;
21822;SDS011;11074;48.596;9.238;2022-12-07T00:51:09;8.13;;;4.22;;
21822;SDS011;11074;48.596;9.238;2022-12-07T00:53:37;7.15;;;4.68;;
21822;SDS011;11074;48.596;9.238;2022-12-07T00:56:12;8.32;;;4.35;;
21822;SDS011;11074;48.596;9.238;2022-12-07T00:58:41;7.32;;;4.95;;
21822;SDS011;11074;48.596;9.238;2022-12-07T01:01:07;8.13;;;4.60;;
21822;SDS011;11074;48.596;9.238;2022-12-07T01:03:35;6.55;;;4.03;;
21822;SDS011;11074;48.596;9.238;2022-12-07T01:06:02;6.55;;;4.25;;
21822;SDS011;11074;48.596;9.238;2022-12-07T01:08:29;6.50;;;4.53;;
21822;SDS011;11074;48.596;9.238;2022-12-07T01:11:01;7.65;;;4.57;;
21822;SDS011;11074;48.596;9.238;2022-12-07T01:13:30;6.15;;;4.20;;
21822;SDS011;11074;48.596;9.238;2022-12-07T01:15:59;6.43;;;4.10;;
21822;SDS011;11074;48.596;9.238;2022-12-07T01:18:28;6.35;;;4.43;;
21822;SDS011;11074;48.596;9.238;2022-12-07T01:21:03;6.97;;;4.35;;
21822;SDS011;11074;48.596;9.238;2022-12-07T01:23:39;7.50;;;3.90;;
21822;SDS011;11074;48.596;9.238;2022-12-07T01:26:06;5.90;;;3.95;;
21822;SDS011;11074;48.596;9.238;2022-12-07T01:28:37;5.75;;;4.07;;
21822;SDS011;11074;48.596;9.238;2022-12-07T01:31:07;6.25;;;4.15;;
21822;SDS011;11074;48.596;9.238;2022-12-07T01:33:37;8.48;;;4.32;;
21822;SDS011;11074;48.596;9.238;2022-12-07T01:36:05;5.78;;;4.03;;
21822;SDS011;11074;48.596;9.238;2022-12-07T01:38:39;6.65;;;4.20;;
21822;SDS011;11074;48.596;9.238;2022-12-07T01:41:06;6.45;;;4.45;;
21822;SDS011;11074;48.596;9.238;2022-12-07T01:43:33;5.25;;;4.00;;
21822;SDS011;11074;48.596;9.238;2022-12-07T01:46:00;6.32;;;4.28;;
21822;SDS011;11074;48.596;9.238;2022-12-07T01:48:30;5.30;;;3.95;;
21822;SDS011;11074;48.596;9.238;2022-12-07T01:51:08;6.90;;;4.50;;
21822;SDS011;11074;48.596;9.238;2022-12-07T01:53:40;7.07;;;4.20;;
21822;SDS011;11074;48.596;9.238;2022-12-07T01:56:10;6.85;;;4.28;;
21822;SDS011;11074;48.596;9.238;2022-12-07T01:58:44;7.85;;;4.72;;
21822;SDS011;11074;48.596;9.238;2022-12-07T02:01:11;7.13;;;4.65;;
21822;SDS011;11074;48.596;9.238;2022-12-07T02:03:41;6.70;;;4.50;;
21822;SDS011;11074;48.596;9.238;2022-12-07T02:06:09;7.20;;;4.32;;
21822;SDS011;11074;48.596;9.238;2022-12-07T02:08:39;6.10;;;4.30;;
21822;SDS011;11074;48.596;9.238;2022-12-07T02:11:06;5.88;;;4.13;;
21822;SDS011;11074;48.596;9.238;2022-12-07T02:13:34;6.63;;;4.15;;
21822;SDS011;11074;48.596;9.238;2022-12-07T02:31:21;8.20;;;5.40;;
21822;SDS011;11074;48.596;9.238;2022-12-07T02:33:54;7.43;;;4.72;;
21822;SDS011;11074;48.596;9.238;2022-12-07T02:36:52;7.05;;;4.55;;
21822;SDS011;11074;48.596;9.238;2022-12-07T02:39:34;6.78;;;4.68;;
21822;SDS011;11074;48.596;9.238;2022-12-07T02:42:17;6.13;;;4.38;;
21822;SDS011;11074;48.596;9.238;2022-12-07T02:44:56;7.28;;;5.07;;
21822;SDS011;11074;48.596;9.238;2022-12-07T02:47:25;7.50;;;5.32;;
21822;SDS011;11074;48.596;9.238;2022-12-07T02:49:54;8.88;;;6.03;;
21822;SDS011;11074;48.596;9.238;2022-12-07T02:52:20;8.85;;;5.50;;
21822;SDS011;11074;48.596;9.238;2022-12-07T02:54:46;8.48;;;5.78;;
21822;SDS011;11074;48.596;9.238;2022-12-07T02:57:15;9.50;;;5.63;;
21822;SDS011;11074;48.596;9.238;2022-12-07T03:00:16;8.60;;;5.97;;
21822;SDS011;11074;48.596;9.238;2022-12-07T03:02:50;8.93;;;6.43;;
21822;SDS011;11074;48.596;9.238;2022-12-07T03:08:22;9.05;;;6.47;;
21822;SDS011;11074;48.596;9.238;2022-12-07T03:11:08;9.80;;;5.90;;
21822;SDS011;11074;48.596;9.238;2022-12-07T03:13:50;9.20;;;6.30;;
21822;SDS011;11074;48.596;9.238;2022-12-07T03:16:33;9.40;;;6.00;;
21822;SDS011;11074;48.596;9.238;2022-12-07T03:19:15;10.50;;;6.38;;
21822;SDS011;11074;48.596;9.238;2022-12-07T03:21:46;11.50;;;7.32;;
21822;SDS011;11074;48.596;9.238;2022-12-07T03:24:23;9.65;;;6.40;;
21822;SDS011;11074;48.596;9.238;2022-12-07T03:26:56;9.30;;;6.07;;
21822;SDS011;11074;48.596;9.238;2022-12-07T03:29:55;9.93;;;6.60;;
21822;SDS011;11074;48.596;9.238;2022-12-07T03:32:51;10.75;;;6.82;;
21822;SDS011;11074;48.596;9.238;2022-12-07T03:35:47;11.30;;;6.43;;
21822;SDS011;11074;48.596;9.238;2022-12-07T03:39:14;10.02;;;6.47;;
21822;SDS011;11074;48.596;9.238;2022-12-07T03:42:09;10.55;;;7.03;;
21822;SDS011;11074;48.596;9.238;2022-12-07T03:44:36;9.20;;;6.35;;
21822;SDS011;11074;48.596;9.238;2022-12-07T03:47:18;12.75;;;6.70;;
21822;SDS011;11074;48.596;9.238;2022-12-07T03:50:05;9.65;;;6.72;;
21822;SDS011;11074;48.596;9.238;2022-12-07T03:52:56;12.77;;;7.95;;
21822;SDS011;11074;48.596;9.238;2022-12-07T03:55:31;8.93;;;6.40;;
21822;SDS011;11074;48.596;9.238;2022-12-07T03:58:03;10.02;;;6.82;;
21822;SDS011;11074;48.596;9.238;2022-12-07T04:00:34;11.30;;;7.15;;
21822;SDS011;11074;48.596;9.238;2022-12-07T04:03:00;11.60;;;7.68;;
21822;SDS011;11074;48.596;9.238;2022-12-07T04:05:26;12.00;;;7.70;;
21822;SDS011;11074;48.596;9.238;2022-12-07T04:07:52;13.73;;;7.88;;
21822;SDS011;11074;48.596;9.238;2022-12-07T04:10:18;11.52;;;8.15;;
21822;SDS011;11074;48.596;9.238;2022-12-07T04:12:44;10.50;;;7.50;;
21822;SDS011;11074;48.596;9.238;2022-12-07T04:15:10;11.82;;;7.57;;
21822;SDS011;11074;48.596;9.238;2022-12-07T04:17:36;9.40;;;6.88;;
21822;SDS011;11074;48.596;9.238;2022-12-07T04:20:03;12.23;;;7.50;;
21822;SDS011;11074;48.596;9.238;2022-12-07T04:22:30;10.90;;;7.07;;
21822;SDS011;11074;48.596;9.238;2022-12-07T04:24:56;10.32;;;7.00;;
21822;SDS011;11074;48.596;9.238;2022-12-07T04:27:21;11.77;;;7.35;;
21822;SDS011;11074;48.596;9.238;2022-12-07T04:29:47;11.57;;;7.13;;
21822;SDS011;11074;48.596;9.238;2022-12-07T04:32:13;11.45;;;7.38;;
21822;SDS011;11074;48.596;9.238;2022-12-07T04:34:38;14.45;;;8.57;;
21822;SDS011;11074;48.596;9.238;2022-12-07T04:37:04;12.30;;;8.32;;
21822;SDS011;11074;48.596;9.238;2022-12-07T04:39:31;12.93;;;8.15;;
21822;SDS011;11074;48.596;9.238;2022-12-07T04:41:58;13.55;;;7.78;;
21822;SDS011;11074;48.596;9.238;2022-12-07T04:44:26;9.85;;;7.18;;
21822;SDS011;11074;48.596;9.238;2022-12-07T04:46:53;12.82;;;7.75;;
21822;SDS011;11074;48.596;9.238;2022-12-07T04:49:20;11.30;;;7.53;;
21822;SDS011;11074;48.596;9.238;2022-12-07T04:51:46;12.60;;;7.88;;
21822;SDS011;11074;48.596;9.238;2022-12-07T04:54:13;13.57;;;7.57;;
21822;SDS011;11074;48.596;9.238;2022-12-07T04:56:41;12.18;;;7.63;;
21822;SDS011;11074;48.596;9.238;2022-12-07T04:59:07;11.90;;;7.40;;
21822;SDS011;11074;48.596;9.238;2022-12-07T05:01:34;12.45;;;7.97;;
21822;SDS011;11074;48.596;9.238;2022-12-07T05:04:00;9.88;;;7.10;;
21822;SDS011;11074;48.596;9.238;2022-12-07T05:06:25;11.55;;;7.85;;
21822;SDS011;11074;48.596;9.238;2022-12-07T05:08:51;13.00;;;7.32;;
21822;SDS011;11074;48.596;9.238;2022-12-07T05:11:17;10.38;;;7.05;;
21822;SDS011;11074;48.596;9.238;2022-12-07T05:14:03;11.07;;;7.30;;
21822;SDS011;11074;48.596;9.238;2022-12-07T05:16:37;11.15;;;7.15;;
21822;SDS011;11074;48.596;9.238;2022-12-07T05:19:05;11.02;;;7.70;;
21822;SDS011;11074;48.596;9.238;2022-12-07T05:21:31;10.35;;;7.05;;
21822;SDS011;11074;48.596;9.238;2022-12-07T05:23:57;13.40;;;7.60;;
21822;SDS011;11074;48.596;9.238;2022-12-07T05:26:23;11.10;;;7.47;;
21822;SDS011;11074;48.596;9.238;2022-12-07T05:28:56;11.80;;;7.20;;
21822;SDS011;11074;48.596;9.238;2022-12-07T05:31:22;11.50;;;6.93;;
21822;SDS011;11074;48.596;9.238;2022-12-07T05:33:50;10.90;;;6.93;;
21822;SDS011;11074;48.596;9.238;2022-12-07T05:36:16;10.43;;;6.85;;
21822;SDS011;11074;48.596;9.238;2022-12-07T05:38:42;10.32;;;7.03;;
21822;SDS011;11074;48.596;9.238;2022-12-07T05:41:08;9.32;;;6.68;;
21822;SDS011;11074;48.596;9.238;2022-12-07T05:44:00;10.80;;;7.20;;
21822;SDS011;11074;48.596;9.238;2022-12-07T05:46:26;11.77;;;7.35;;
21822;SDS011;11074;48.596;9.238;2022-12-07T05:48:52;10.20;;;7.10;;
21822;SDS011;11074;48.596;9.238;2022-12-07T05:51:18;10.55;;;6.93;;
21822;SDS011;11074;48.596;9.238;2022-12-07T05:53:44;10.45;;;6.43;;
21822;SDS011;11074;48.596;9.238;2022-12-07T05:56:10;12.05;;;7.32;;
21822;SDS011;11074;48.596;9.238;2022-12-07T05:58:36;10.30;;;6.63;;
21822;SDS011;11074;48.596;9.238;2022-12-07T06:01:21;10.40;;;6.60;;
21822;SDS011;11074;48.596;9.238;2022-12-07T06:03:46;12.73;;;6.88;;
21822;SDS011;11074;48.596;9.238;2022-12-07T06:06:12;10.48;;;6.50;;
21822;SDS011;11074;48.596;9.238;2022-12-07T06:08:37;11.15;;;6.68;;
21822;SDS011;11074;48.596;9.238;2022-12-07T06:11:03;11.20;;;7.32;;
21822;SDS011;11074;48.596;9.238;2022-12-07T06:13:48;10.27;;;6.65;;
21822;SDS011;11074;48.596;9.238;2022-12-07T06:16:13;10.30;;;6.80;;
21822;SDS011;11074;48.596;9.238;2022-12-07T06:18:39;11.60;;;6.72;;
21822;SDS011;11074;48.596;9.238;2022-12-07T06:21:05;11.15;;;7.80;;
21822;SDS011;11074;48.596;9.238;2022-12-07T06:23:30;11.80;;;7.57;;
21822;SDS011;11074;48.596;9.238;2022-12-07T06:25:56;11.50;;;6.78;;
21822;SDS011;11074;48.596;9.238;2022-12-07T06:28:22;11.93;;;7.60;;
21822;SDS011;11074;48.596;9.238;2022-12-07T06:30:47;16.80;;;11.30;;
21822;SDS011;11074;48.596;9.238;2022-12-07T06:33:26;13.55;;;8.55;;
21822;SDS011;11074;48.596;9.238;2022-12-07T06:35:52;12.20;;;8.52;;
21822;SDS011;11074;48.596;9.238;2022-12-07T06:38:18;16.30;;;10.02;;
21822;SDS011;11074;48.596;9.238;2022-12-07T06:40:44;18.20;;;11.25;;
21822;SDS011;11074;48.596;9.238;2022-12-07T06:43:10;14.75;;;9.13;;
21822;SDS011;11074;48.596;9.238;2022-12-07T06:45:36;12.57;;;8.57;;
21822;SDS011;11074;48.596;9.238;2022-12-07T06:48:01;12.95;;;8.57;;
21822;SDS011;11074;48.596;9.238;2022-12-07T06:50:27;12.25;;;8.00;;
21822;SDS011;11074;48.596;9.238;2022-12-07T06:52:53;16.38;;;10.35;;
21822;SDS011;11074;48.596;9.238;2022-12-07T06:55:18;12.43;;;8.73;;
21822;SDS011;11074;48.596;9.238;2022-12-07T06:57:44;12.88;;;8.43;;
21822;SDS011;11074;48.596;9.238;2022-12-07T07:00:10;10.95;;;7.35;;
21822;SDS011;11074;48.596;9.238;2022-12-07T07:02:36;12.70;;;8.18;;
21822;SDS011;11074;48.596;9.238;2022-12-07T07:05:02;11.65;;;8.43;;
21822;SDS011;11074;48.596;9.238;2022-12-07T07:07:28;12.65;;;8.02;;
21822;SDS011;11074;48.596;9.238;2022-12-07T07:09:54;11.35;;;7.60;;
21822;SDS011;11074;48.596;9.238;2022-12-07T07:12:20;11.27;;;7.35;;
21822;SDS011;11074;48.596;9.238;2022-12-07T07:14:46;12.52;;;7.55;;
21822;SDS011;11074;48.596;9.238;2022-12-07T07:17:11;11.25;;;7.07;;
21822;SDS011;11074;48.596;9.238;2022-12-07T07:19:37;11.13;;;7.30;;
21822;SDS011;11074;48.596;9.238;2022-12-07T07:22:03;12.13;;;7.55;;
21822;SDS011;11074;48.596;9.238;2022-12-07T07:24:29;12.23;;;7.38;;
21822;SDS011;11074;48.596;9.238;2022-12-07T07:26:55;12.48;;;8.20;;
21822;SDS011;11074;48.596;9.238;2022-12-07T07:29:21;13.15;;;8.38;;
21822;SDS011;11074;48.596;9.238;2022-12-07T07:31:47;13.10;;;8.60;;
21822;SDS011;11074;48.596;9.238;2022-12-07T07:34:12;12.02;;;8.18;;
21822;SDS011;11074;48.596;9.238;2022-12-07T07:36:38;13.00;;;7.93;;
21822;SDS011;11074;48.596;9.238;2022-12-07T07:39:04;13.30;;;8.63;;
21822;SDS011;11074;48.596;9.238;2022-12-07T07:41:30;12.85;;;7.63;;
21822;SDS011;11074;48.596;9.238;2022-12-07T07:43:56;13.38;;;7.97;;
21822;SDS011;11074;48.596;9.238;2022-12-07T07:46:22;15.55;;;8.60;;
21822;SDS011;11074;48.596;9.238;2022-12-07T07:48:48;12.15;;;7.78;;
21822;SDS011;11074;48.596;9.238;2022-12-07T07:51:13;13.15;;;8.10;;
21822;SDS011;11074;48.596;9.238;2022-12-07T07:53:39;11.23;;;7.75;;
21822;SDS011;11074;48.596;9.238;2022-12-07T07:56:05;11.85;;;7.72;;
21822;SDS011;11074;48.596;9.238;2022-12-07T07:58:30;12.18;;;7.32;;
21822;SDS011;11074;48.596;9.238;2022-12-07T08:00:56;10.63;;;7.63;;
21822;SDS011;11074;48.596;9.238;2022-12-07T08:03:22;11.40;;;7.45;;
21822;SDS011;11074;48.596;9.238;2022-12-07T08:05:47;10.77;;;7.07;;
21822;SDS011;11074;48.596;9.238;2022-12-07T08:08:13;10.40;;;7.05;;
21822;SDS011;11074;48.596;9.238;2022-12-07T08:10:39;10.50;;;7.22;;
21822;SDS011;11074;48.596;9.238;2022-12-07T08:13:04;11.27;;;7.05;;
21822;SDS011;11074;48.596;9.238;2022-12-07T08:15:37;9.10;;;6.30;;
21822;SDS011;11074;48.596;9.238;2022-12-07T08:18:04;11.23;;;7.28;;
21822;SDS011;11074;48.596;9.238;2022-12-07T08:20:30;10.63;;;7.22;;
21822;SDS011;11074;48.596;9.238;2022-12-07T08:22:58;11.07;;;7.47;;
21822;SDS011;11074;48.596;9.238;2022-12-07T08:25:24;12.50;;;7.82;;
21822;SDS011;11074;48.596;9.238;2022-12-07T08:27:50;11.60;;;7.03;;
21822;SDS011;11074;48.596;9.238;2022-12-07T08:30:17;10.32;;;7.15;;
21822;SDS011;11074;48.596;9.238;2022-12-07T08:32:46;11.77;;;7.82;;
21822;SDS011;11074;48.596;9.238;2022-12-07T08:35:13;10.05;;;7.35;;
21822;SDS011;11074;48.596;9.238;2022-12-07T08:37:40;11.55;;;7.47;;
21822;SDS011;11074;48.596;9.238;2022-12-07T08:40:07;10.77;;;6.63;;
21822;SDS011;11074;48.596;9.238;2022-12-07T08:42:35;13.88;;;7.43;;
21822;SDS011;11074;48.596;9.238;2022-12-07T08:45:09;10.98;;;7.50;;
21822;SDS011;11074;48.596;9.238;2022-12-07T08:50:27;11.32;;;7.50;;
21822;SDS011;11074;48.596;9.238;2022-12-07T08:52:54;9.80;;;7.13;;
21822;SDS011;11074;48.596;9.238;2022-12-07T08:55:23;11.73;;;7.25;;
21822;SDS011;11074;48.596;9.238;2022-12-07T08:57:49;11.13;;;7.35;;
21822;SDS011;11074;48.596;9.238;2022-12-07T09:00:15;11.88;;;7.93;;
21822;SDS011;11074;48.596;9.238;2022-12-07T09:02:42;13.55;;;7.82;;
21822;SDS011;11074;48.596;9.238;2022-12-07T09:05:10;12.48;;;7.43;;
21822;SDS011;11074;48.596;9.238;2022-12-07T09:07:36;10.95;;;7.75;;
21822;SDS011;11074;48.596;9.238;2022-12-07T09:10:04;12.65;;;7.93;;
21822;SDS011;11074;48.596;9.238;2022-12-07T09:12:30;11.38;;;6.90;;
21822;SDS011;11074;48.596;9.238;2022-12-07T09:14:56;11.23;;;6.75;;
21822;SDS011;11074;48.596;9.238;2022-12-07T09:17:21;10.63;;;6.95;;
21822;SDS011;11074;48.596;9.238;2022-12-07T09:19:47;10.80;;;7.20;;
21822;SDS011;11074;48.596;9.238;2022-12-07T09:22:13;12.05;;;7.70;;
21822;SDS011;11074;48.596;9.238;2022-12-07T09:24:39;10.13;;;6.97;;
21822;SDS011;11074;48.596;9.238;2022-12-07T09:27:04;10.35;;;7.05;;
21822;SDS011;11074;48.596;9.238;2022-12-07T09:29:30;10.48;;;7.13;;
21822;SDS011;11074;48.596;9.238;2022-12-07T09:31:56;13.15;;;7.20;;
21822;SDS011;11074;48.596;9.238;2022-12-07T09:34:21;10.68;;;7.22;;
21822;SDS011;11074;48.596;9.238;2022-12-07T09:36:47;9.93;;;6.55;;
21822;SDS011;11074;48.596;9.238;2022-12-07T09:39:13;10.35;;;7.05;;
21822;SDS011;11074;48.596;9.238;2022-12-07T09:41:42;9.23;;;6.50;;
21822;SDS011;11074;48.596;9.238;2022-12-07T09:44:11;11.10;;;7.07;;
21822;SDS011;11074;48.596;9.238;2022-12-07T09:46:43;10.02;;;6.68;;
21822;SDS011;11074;48.596;9.238;2022-12-07T09:49:18;10.32;;;6.60;;
21822;SDS011;11074;48.596;9.238;2022-12-07T09:51:47;9.77;;;6.68;;
21822;SDS011;11074;48.596;9.238;2022-12-07T09:54:23;9.75;;;6.35;;
21822;SDS011;11074;48.596;9.238;2022-12-07T09:56:49;11.70;;;6.68;;
21822;SDS011;11074;48.596;9.238;2022-12-07T09:59:18;11.85;;;6.35;;
21822;SDS011;11074;48.596;9.238;2022-12-07T10:01:45;11.70;;;6.70;;
21822;SDS011;11074;48.596;9.238;2022-12-07T10:04:18;10.80;;;6.78;;
21822;SDS011;11074;48.596;9.238;2022-12-07T10:06:49;8.68;;;5.97;;
21822;SDS011;11074;48.596;9.238;2022-12-07T10:09:19;8.05;;;5.78;;
21822;SDS011;11074;48.596;9.238;2022-12-07T10:14:40;8.23;;;5.05;;
21822;SDS011;11074;48.596;9.238;2022-12-07T10:17:33;7.95;;;5.13;;
21822;SDS011;11074;48.596;9.238;2022-12-07T10:22:58;7.13;;;4.90;;
21822;SDS011;11074;48.596;9.238;2022-12-07T10:25:30;8.98;;;4.70;;
21822;SDS011;11074;48.596;9.238;2022-12-07T10:33:33;7.07;;;4.65;;
21822;SDS011;11074;48.596;9.238;2022-12-07T10:36:17;10.45;;;5.70;;
21822;SDS011;11074;48.596;9.238;2022-12-07T10:39:02;6.68;;;4.47;;
21822;SDS011;11074;48.596;9.238;2022-12-07T10:44:22;7.30;;;4.70;;
21822;SDS011;11074;48.596;9.238;2022-12-07T10:52:42;8.45;;;4.65;;
21822;SDS011;11074;48.596;9.238;2022-12-07T10:55:39;7.43;;;4.50;;
21822;SDS011;11074;48.596;9.238;2022-12-07T10:58:37;7.43;;;4.43;;
21822;SDS011;11074;48.596;9.238;2022-12-07T11:01:54;7.22;;;4.70;;
21822;SDS011;11074;48.596;9.238;2022-12-07T11:08:00;9.98;;;4.90;;
21822;SDS011;11074;48.596;9.238;2022-12-07T11:10:55;9.20;;;5.45;;
21822;SDS011;11074;48.596;9.238;2022-12-07T11:19:12;8.05;;;5.10;;
21822;SDS011;11074;48.596;9.238;2022-12-07T11:21:57;8.18;;;5.15;;
21822;SDS011;11074;48.596;9.238;2022-12-07T11:27:21;7.95;;;4.78;;
21822;SDS011;11074;48.596;9.238;2022-12-07T11:30:21;8.40;;;4.80;;
21822;SDS011;11074;48.596;9.238;2022-12-07T11:33:01;6.78;;;4.55;;
21822;SDS011;11074;48.596;9.238;2022-12-07T11:38:11;8.55;;;4.43;;
21822;SDS011;11074;48.596;9.238;2022-12-07T11:40:43;7.93;;;4.63;;
21822;SDS011;11074;48.596;9.238;2022-12-07T11:43:27;7.30;;;4.97;;
21822;SDS011;11074;48.596;9.238;2022-12-07T11:48:38;6.10;;;4.28;;
21822;SDS011;11074;48.596;9.238;2022-12-07T11:51:14;7.93;;;4.20;;
21822;SDS011;11074;48.596;9.238;2022-12-07T11:53:53;7.45;;;4.85;;
21822;SDS011;11074;48.596;9.238;2022-12-07T11:56:59;7.70;;;4.57;;
21822;SDS011;11074;48.596;9.238;2022-12-07T11:59:38;7.10;;;4.53;;
21822;SDS011;11074;48.596;9.238;2022-12-07T12:02:26;8.05;;;4.80;;
21822;SDS011;11074;48.596;9.238;2022-12-07T12:05:12;8.55;;;4.85;;
21822;SDS011;11074;48.596;9.238;2022-12-07T12:07:42;7.18;;;4.80;;
21822;SDS011;11074;48.596;9.238;2022-12-07T12:21:39;7.43;;;5.25;;
21822;SDS011;11074;48.596;9.238;2022-12-07T12:24:10;7.95;;;5.38;;
21822;SDS011;11074;48.596;9.238;2022-12-07T12:27:05;7.90;;;5.05;;
21822;SDS011;11074;48.596;9.238;2022-12-07T12:29:41;8.63;;;5.38;;
21822;SDS011;11074;48.596;9.238;2022-12-07T12:32:22;11.07;;;5.30;;
21822;SDS011;11074;48.596;9.238;2022-12-07T12:35:22;8.00;;;4.97;;
21822;SDS011;11074;48.596;9.238;2022-12-07T12:46:57;6.97;;;4.80;;
21822;SDS011;11074;48.596;9.238;2022-12-07T12:49:34;9.45;;;5.05;;
21822;SDS011;11074;48.596;9.238;2022-12-07T12:54:57;7.50;;;4.97;;
21822;SDS011;11074;48.596;9.238;2022-12-07T12:57:32;8.05;;;4.68;;
21822;SDS011;11074;48.596;9.238;2022-12-07T12:59:59;7.93;;;5.28;;
21822;SDS011;11074;48.596;9.238;2022-12-07T13:02:47;11.25;;;6.03;;
21822;SDS011;11074;48.596;9.238;2022-12-07T13:05:22;7.07;;;4.43;;
21822;SDS011;11074;48.596;9.238;2022-12-07T13:07:55;7.00;;;4.80;;
21822;SDS011;11074;48.596;9.238;2022-12-07T13:15:40;6.72;;;4.35;;
21822;SDS011;11074;48.596;9.238;2022-12-07T13:20:59;7.22;;;4.95;;
21822;SDS011;11074;48.596;9.238;2022-12-07T13:29:16;8.15;;;4.90;;
21822;SDS011;11074;48.596;9.238;2022-12-07T13:31:51;8.27;;;5.03;;
21822;SDS011;11074;48.596;9.238;2022-12-07T13:34:32;9.00;;;4.60;;
21822;SDS011;11074;48.596;9.238;2022-12-07T13:37:00;7.38;;;4.80;;
21822;SDS011;11074;48.596;9.238;2022-12-07T13:39:29;8.57;;;4.80;;
21822;SDS011;11074;48.596;9.238;2022-12-07T13:42:06;7.80;;;4.93;;
21822;SDS011;11074;48.596;9.238;2022-12-07T13:44:44;6.43;;;4.70;;
21822;SDS011;11074;48.596;9.238;2022-12-07T13:49:50;8.40;;;4.63;;
21822;SDS011;11074;48.596;9.238;2022-12-07T13:52:22;8.43;;;4.82;;
21822;SDS011;11074;48.596;9.238;2022-12-07T13:54:58;8.43;;;5.20;;
21822;SDS011;11074;48.596;9.238;2022-12-07T13:57:27;6.90;;;4.53;;
21822;SDS011;11074;48.596;9.238;2022-12-07T13:59:56;11.73;;;5.85;;
21822;SDS011;11074;48.596;9.238;2022-12-07T14:05:05;9.82;;;5.32;;
21822;SDS011;11074;48.596;9.238;2022-12-07T14:07:47;7.85;;;4.85;;
21822;SDS011;11074;48.596;9.238;2022-12-07T14:10:35;10.63;;;5.65;;
21822;SDS011;11074;48.596;9.238;2022-12-07T14:13:33;9.70;;;5.55;;
21822;SDS011;11074;48.596;9.238;2022-12-07T14:16:24;11.13;;;6.13;;
21822;SDS011;11074;48.596;9.238;2022-12-07T14:19:04;12.15;;;5.50;;
21822;SDS011;11074;48.596;9.238;2022-12-07T14:22:05;12.50;;;5.97;;
21822;SDS011;11074;48.596;9.238;2022-12-07T14:24:45;8.70;;;5.40;;
21822;SDS011;11074;48.596;9.238;2022-12-07T14:27:17;9.32;;;5.50;;
21822;SDS011;11074;48.596;9.238;2022-12-07T14:29:50;8.88;;;5.43;;
21822;SDS011;11074;48.596;9.238;2022-12-07T14:32:24;11.27;;;5.43;;
21822;SDS011;11074;48.596;9.238;2022-12-07T14:35:08;9.80;;;5.80;;
21822;SDS011;11074;48.596;9.238;2022-12-07T14:37:38;9.20;;;6.15;;
21822;SDS011;11074;48.596;9.238;2022-12-07T14:40:06;8.80;;;5.68;;
21822;SDS011;11074;48.596;9.238;2022-12-07T14:42:37;8.45;;;5.30;;
21822;SDS011;11074;48.596;9.238;2022-12-07T14:45:05;7.05;;;4.70;;
21822;SDS011;11074;48.596;9.238;2022-12-07T14:47:46;8.25;;;5.30;;
21822;SDS011;11074;48.596;9.238;2022-12-07T14:50:13;11.07;;;5.68;;
21822;SDS011;11074;48.596;9.238;2022-12-07T14:52:43;10.68;;;6.55;;
21822;SDS011;11074;48.596;9.238;2022-12-07T14:55:50;6.85;;;4.47;;
21822;SDS011;11074;48.596;9.238;2022-12-07T14:58:17;7.30;;;4.97;;
21822;SDS011;11074;48.596;9.238;2022-12-07T15:00:43;8.75;;;4.93;;
21822;SDS011;11074;48.596;9.238;2022-12-07T15:03:09;10.05;;;6.40;;
21822;SDS011;11074;48.596;9.238;2022-12-07T15:05:35;9.43;;;5.35;;
21822;SDS011;11074;48.596;9.238;2022-12-07T15:08:02;8.57;;;5.50;;
21822;SDS011;11074;48.596;9.238;2022-12-07T15:10:29;7.70;;;5.40;;
21822;SDS011;11074;48.596;9.238;2022-12-07T15:12:58;8.85;;;5.05;;
21822;SDS011;11074;48.596;9.238;2022-12-07T15:15:44;7.78;;;4.88;;
21822;SDS011;11074;48.596;9.238;2022-12-07T15:18:10;9.43;;;5.03;;
21822;SDS011;11074;48.596;9.238;2022-12-07T15:20:36;6.45;;;4.68;;
21822;SDS011;11074;48.596;9.238;2022-12-07T15:23:02;9.63;;;5.55;;
21822;SDS011;11074;48.596;9.238;2022-12-07T15:25:28;7.45;;;4.70;;
21822;SDS011;11074;48.596;9.238;2022-12-07T15:27:54;6.55;;;4.25;;
21822;SDS011;11074;48.596;9.238;2022-12-07T15:30:19;6.50;;;4.00;;
21822;SDS011;11074;48.596;9.238;2022-12-07T15:32:48;6.57;;;4.28;;
21822;SDS011;11074;48.596;9.238;2022-12-07T15:35:15;6.85;;;4.03;;
21822;SDS011;11074;48.596;9.238;2022-12-07T15:37:41;10.30;;;4.57;;
21822;SDS011;11074;48.596;9.238;2022-12-07T15:40:07;7.68;;;5.10;;
21822;SDS011;11074;48.596;9.238;2022-12-07T15:42:34;7.35;;;5.22;;
21822;SDS011;11074;48.596;9.238;2022-12-07T15:45:01;6.78;;;4.55;;
21822;SDS011;11074;48.596;9.238;2022-12-07T15:47:31;4.95;;;3.33;;
21822;SDS011;11074;48.596;9.238;2022-12-07T15:50:06;6.15;;;4.03;;
21822;SDS011;11074;48.596;9.238;2022-12-07T15:52:36;6.63;;;3.97;;
21822;SDS011;11074;48.596;9.238;2022-12-07T15:55:03;5.97;;;3.58;;
21822;SDS011;11074;48.596;9.238;2022-12-07T15:57:30;8.38;;;4.45;;
21822;SDS011;11074;48.596;9.238;2022-12-07T15:59:57;5.45;;;4.47;;
21822;SDS011;11074;48.596;9.238;2022-12-07T16:02:23;8.27;;;5.43;;
21822;SDS011;11074;48.596;9.238;2022-12-07T16:04:50;5.05;;;3.35;;
21822;SDS011;11074;48.596;9.238;2022-12-07T16:07:17;5.32;;;3.10;;
21822;SDS011;11074;48.596;9.238;2022-12-07T16:09:44;5.53;;;3.17;;
21822;SDS011;11074;48.596;9.238;2022-12-07T16:12:12;5.30;;;3.75;;
21822;SDS011;11074;48.596;9.238;2022-12-07T16:14:39;5.53;;;3.50;;
21822;SDS011;11074;48.596;9.238;2022-12-07T16:17:06;5.28;;;3.10;;
21822;SDS011;11074;48.596;9.238;2022-12-07T16:19:33;6.65;;;4.30;;
21822;SDS011;11074;48.596;9.238;2022-12-07T16:22:01;6.18;;;3.95;;
21822;SDS011;11074;48.596;9.238;2022-12-07T16:24:29;15.90;;;8.60;;
21822;SDS011;11074;48.596;9.238;2022-12-07T16:26:56;11.25;;;7.38;;
21822;SDS011;11074;48.596;9.238;2022-12-07T16:29:22;11.88;;;7.30;;
21822;SDS011;11074;48.596;9.238;2022-12-07T16:31:48;11.98;;;6.88;;
21822;SDS011;11074;48.596;9.238;2022-12-07T16:34:16;7.03;;;4.40;;
21822;SDS011;11074;48.596;9.238;2022-12-07T16:36:42;7.40;;;4.43;;
21822;SDS011;11074;48.596;9.238;2022-12-07T16:39:08;7.03;;;4.18;;
21822;SDS011;11074;48.596;9.238;2022-12-07T16:41:34;7.30;;;3.92;;
21822;SDS011;11074;48.596;9.238;2022-12-07T16:44:02;5.78;;;4.00;;
21822;SDS011;11074;48.596;9.238;2022-12-07T16:46:33;6.07;;;3.95;;
21822;SDS011;11074;48.596;9.238;2022-12-07T16:49:00;5.15;;;3.70;;